Time;durP1;ratioP1;P1;durP2;ratioP2;P2;SDS_P1;SDS_P2;PMS_P1;PMS_P2;Temp;Humidity;BMP_temperature;BMP_pressure;BME280_temperature;BME280_humidity;BME280_pressure;Samples;Min_cycle;Max_cycle;Signal;HPM_P1;HPM_P2
2022/03/28 00:00:53;;;;;;;31.23;14.00;;;;;;;4.16;35.07;101193.44;6282290;28;20488;-75
2022/03/28 00:03:54;;;;;;;29.35;13.85;;;;;;;4.26;36.05;101194.97;6298453;28;20052;-75
2022/03/28 00:06:55;;;;;;;29.63;14.25;;;;;;;4.28;36.97;101193.22;6281980;28;20468;-75
2022/03/28 00:09:56;;;;;;;30.10;13.55;;;;;;;4.23;37.21;101193.31;6298539;28;20091;-75
2022/03/28 00:12:57;;;;;;;28.88;13.57;;;;;;;4.18;37.84;101197.72;6298507;28;20044;-75
2022/03/28 00:15:57;;;;;;;25.67;13.65;;;;;;;4.18;37.75;101196.84;6298426;28;20113;-75
2022/03/28 00:18:58;;;;;;;30.17;13.80;;;;;;;4.13;38.88;101193.50;6281813;28;20047;-75
2022/03/28 00:22:00;;;;;;;33.42;13.80;;;;;;;4.07;37.75;101194.44;6299385;28;20040;-75
2022/03/28 00:25:00;;;;;;;32.75;13.57;;;;;;;4.06;39.00;101197.03;6298165;28;20081;-75
2022/03/28 00:28:01;;;;;;;29.50;12.38;;;;;;;3.96;38.18;101194.59;6298117;28;20044;-75
2022/03/28 00:31:02;;;;;;;29.38;11.75;;;;;;;3.98;37.51;101192.84;6299434;28;20041;-75
2022/03/28 00:34:03;;;;;;;27.20;11.73;;;;;;;3.96;37.45;101180.84;6298996;28;20041;-75
2022/03/28 00:37:04;;;;;;;17.25;8.32;;;;;;;3.87;33.14;101178.41;6298034;28;20549;-75
2022/03/28 00:40:16;;;;;;;23.40;10.52;;;;;;;3.82;33.77;101174.16;6297941;28;20044;-75
2022/03/28 00:43:17;;;;;;;26.70;10.23;;;;;;;3.83;35.27;101175.03;6298865;28;20102;-75
2022/03/28 00:46:18;;;;;;;23.73;9.48;;;;;;;3.78;36.11;101175.06;6298256;28;20476;-75
2022/03/28 00:49:19;;;;;;;22.38;9.75;;;;;;;3.81;37.09;101169.03;6297197;28;20072;-75
2022/03/28 00:52:20;;;;;;;23.63;10.30;;;;;;;3.82;40.18;101181.91;6313939;28;20461;-76
2022/03/28 00:55:21;;;;;;;23.85;10.32;;;;;;;3.78;39.24;101175.06;6297235;28;20045;-76
2022/03/28 00:58:22;;;;;;;20.27;8.18;;;;;;;3.79;37.04;101184.53;6298515;28;20040;-76
2022/03/28 01:01:23;;;;;;;21.73;9.65;;;;;;;3.70;38.90;101176.91;6303376;28;20510;-76
2022/03/28 01:04:24;;;;;;;20.98;8.52;;;;;;;3.66;37.38;101177.84;6304779;28;20056;-76
2022/03/28 01:07:28;;;;;;;17.73;8.55;;;;;;;3.67;38.37;101178.72;6288537;28;20047;-76
2022/03/28 01:10:30;;;;;;;26.08;8.55;;;;;;;3.66;38.67;101167.50;6321612;28;20040;-76
2022/03/28 01:13:34;;;;;;;27.83;9.13;;;;;;;3.65;38.46;101172.72;6321719;28;20040;-76
2022/03/28 01:20:02;;;;;;;17.08;8.23;;;;;;;3.60;38.18;101160.72;6305300;28;20098;-76
2022/03/28 01:23:04;;;;;;;19.67;8.13;;;;;;;3.61;38.33;101164.16;6322712;28;20044;-76
2022/03/28 01:26:06;;;;;;;15.75;7.75;;;;;;;3.58;38.60;101156.44;6322616;28;20071;-75
2022/03/28 01:29:08;;;;;;;19.92;8.07;;;;;;;3.51;40.62;101155.69;6304700;28;20664;-76
2022/03/28 01:32:09;;;;;;;18.30;7.60;;;;;;;3.42;40.67;101150.69;6304918;28;20098;-76
2022/03/28 01:35:10;;;;;;;16.27;8.07;;;;;;;3.28;43.06;101153.44;6322817;28;20042;-76
2022/03/28 01:38:15;;;;;;;15.95;7.80;;;;;;;3.30;41.93;101159.44;6310820;28;20032;-76
2022/03/28 01:41:16;;;;;;;24.08;8.25;;;;;;;3.29;42.79;101151.69;6296108;28;20047;-76
2022/03/28 01:44:17;;;;;;;21.23;7.43;;;;;;;3.28;42.60;101156.00;6296394;28;20053;-75
2022/03/28 01:47:18;;;;;;;19.52;8.48;;;;;;;3.06;36.13;101142.53;6297613;28;20186;-76
2022/03/28 01:50:20;;;;;;;16.50;8.05;;;;;;;2.89;36.08;101136.75;6297518;28;20055;-75
2022/03/28 01:53:21;;;;;;;18.60;8.35;;;;;;;2.87;38.66;101141.06;6297421;28;20048;-75
2022/03/28 01:56:21;;;;;;;16.23;8.23;;;;;;;2.92;38.69;101139.25;6313238;28;20045;-75
2022/03/28 01:59:22;;;;;;;16.30;7.60;;;;;;;2.99;40.03;101136.59;6313187;28;20041;-75
2022/03/28 02:02:23;;;;;;;18.23;7.75;;;;;;;3.01;40.16;101134.84;6328066;28;20197;-76
2022/03/28 02:05:25;;;;;;;19.10;7.68;;;;;;;2.94;40.71;101137.53;6321720;28;20040;-76
2022/03/28 02:08:25;;;;;;;16.45;7.03;;;;;;;2.85;38.72;101129.91;6321418;28;20032;-75
2022/03/28 02:11:28;;;;;;;16.40;7.07;;;;;;;2.72;37.15;101137.78;6321598;28;20040;-75
2022/03/28 02:14:29;;;;;;;13.80;7.13;;;;;;;2.74;37.92;101137.75;6304162;28;20480;-75
2022/03/28 02:17:31;;;;;;;11.57;6.15;;;;;;;2.81;37.72;101134.25;6302391;28;20051;-75
2022/03/28 02:20:32;;;;;;;13.23;6.47;;;;;;;2.80;37.84;101137.69;6310190;28;20529;-75
2022/03/28 02:23:36;;;;;;;12.00;6.53;;;;;;;2.85;39.22;101132.50;6309994;28;20093;-75
2022/03/28 02:26:38;;;;;;;13.75;5.95;;;;;;;2.85;38.23;101135.06;6326153;28;20043;-76
2022/03/28 02:29:38;;;;;;;14.05;6.50;;;;;;;2.83;39.08;101135.94;6327140;28;20418;-76
2022/03/28 02:32:39;;;;;;;13.98;5.95;;;;;;;2.84;36.39;101131.63;6327020;28;20124;-76
2022/03/28 02:35:40;;;;;;;15.10;6.30;;;;;;;2.81;36.70;101132.50;6327008;28;20042;-76
2022/03/28 02:38:41;;;;;;;15.27;5.68;;;;;;;2.72;37.38;101129.19;6309089;28;20036;-76
2022/03/28 02:41:42;;;;;;;13.55;5.57;;;;;;;2.72;37.10;101124.91;6323300;28;20127;-76
2022/03/28 02:44:43;;;;;;;9.55;4.80;;;;;;;2.76;37.25;101131.72;6317253;28;20066;-76
2022/03/28 02:47:44;;;;;;;11.43;5.53;;;;;;;2.77;37.34;101133.41;6301862;28;20041;-76
2022/03/28 02:50:45;;;;;;;12.38;5.55;;;;;;;2.81;38.00;101129.94;6301486;28;20528;-76
2022/03/28 02:53:46;;;;;;;11.38;4.70;;;;;;;2.73;38.07;101133.47;6300768;28;20036;-76
2022/03/28 02:56:46;;;;;;;16.20;5.20;;;;;;;2.71;39.50;101119.75;6316909;28;20044;-76
2022/03/28 02:59:47;;;;;;;11.55;5.07;;;;;;;2.76;39.88;101115.38;6298419;28;20694;-70
2022/03/28 03:02:48;;;;;;;7.88;4.57;;;;;;;2.78;39.21;101118.81;6299534;28;20075;-69
2022/03/28 03:05:52;;;;;;;13.32;5.45;;;;;;;2.80;40.37;101120.50;6299981;28;20064;-69
2022/03/28 03:08:52;;;;;;;15.43;5.55;;;;;;;2.78;41.98;101111.94;6300011;28;20056;-69
2022/03/28 03:11:54;;;;;;;11.18;5.20;;;;;;;2.77;40.99;101112.81;6312604;28;20044;-70
2022/03/28 03:14:54;;;;;;;9.93;4.32;;;;;;;2.77;40.52;101106.81;6323665;28;20036;-69
2022/03/28 03:17:55;;;;;;;9.85;4.95;;;;;;;2.74;40.55;101104.25;6306702;28;20055;-69
2022/03/28 03:20:56;;;;;;;10.32;4.60;;;;;;;2.69;42.50;101094.00;6323706;28;20044;-70
2022/03/28 03:23:57;;;;;;;13.90;4.45;;;;;;;2.68;43.56;101089.72;6323580;28;20485;-69
2022/03/28 03:26:58;;;;;;;13.02;4.65;;;;;;;2.67;41.94;101084.59;6323030;28;20040;-70
2022/03/28 03:29:59;;;;;;;13.40;5.20;;;;;;;2.59;43.51;101084.66;6323443;28;20125;-69
2022/03/28 03:32:59;;;;;;;8.10;4.43;;;;;;;2.62;44.00;101084.66;6323330;28;20047;-70
2022/03/28 03:36:01;;;;;;;11.30;5.03;;;;;;;2.62;42.35;101079.50;6306178;28;20051;-70
2022/03/28 03:39:03;;;;;;;10.88;4.80;;;;;;;2.56;42.60;101075.25;6323215;28;20070;-69
2022/03/28 03:42:05;;;;;;;9.93;4.90;;;;;;;2.58;42.73;101080.41;6340391;28;20087;-69
2022/03/28 03:45:06;;;;;;;14.00;4.05;;;;;;;2.58;41.91;101080.41;6306213;28;20070;-69
2022/03/28 03:48:08;;;;;;;14.87;6.73;;;;;;;2.60;39.87;101078.66;6306401;28;20055;-69
2022/03/28 03:51:09;;;;;;;17.75;6.72;;;;;;;2.63;42.83;101076.88;6320462;28;20077;-69
2022/03/28 03:54:11;;;;;;;31.40;10.27;;;;;;;2.60;41.47;101076.94;6313951;28;20040;-69
2022/03/28 03:57:12;;;;;;;20.63;7.85;;;;;;;2.59;41.25;101067.50;6296695;28;20091;-69
2022/03/28 04:00:13;;;;;;;18.77;8.05;;;;;;;2.56;41.10;101070.09;6298981;28;20479;-69
2022/03/28 04:03:14;;;;;;;23.90;9.15;;;;;;;2.53;40.80;101079.59;6298738;28;20080;-70
2022/03/28 04:06:15;;;;;;;20.10;8.07;;;;;;;2.54;40.25;101078.72;6308245;28;20065;-70
2022/03/28 04:09:16;;;;;;;16.77;7.85;;;;;;;2.51;39.71;101077.06;6307796;28;20048;-69
2022/03/28 04:12:17;;;;;;;24.75;8.38;;;;;;;2.52;41.35;101073.59;6289749;28;20045;-70
2022/03/28 04:15:19;;;;;;;23.08;10.20;;;;;;;2.50;40.90;101077.91;6296262;28;20129;-70
2022/03/28 04:18:20;;;;;;;25.80;10.27;;;;;;;2.42;39.02;101087.44;6321475;28;20032;-71
2022/03/28 04:21:21;;;;;;;23.05;9.88;;;;;;;2.34;42.39;101087.50;6321473;28;20410;-70
2022/03/28 04:24:22;;;;;;;24.48;9.70;;;;;;;2.38;43.58;101090.91;6322276;28;20048;-70
2022/03/28 04:27:23;;;;;;;24.85;9.70;;;;;;;2.25;43.63;101091.94;6321111;28;20549;-70
2022/03/28 04:30:24;;;;;;;22.90;9.13;;;;;;;2.24;44.66;101093.63;6321082;28;20044;-70
2022/03/28 04:33:25;;;;;;;23.35;8.85;;;;;;;2.28;42.90;101087.56;6322378;28;20050;-70
2022/03/28 04:36:26;;;;;;;21.77;8.75;;;;;;;2.26;43.84;101080.75;6321185;28;20051;-70
2022/03/28 04:39:27;;;;;;;19.48;9.13;;;;;;;2.22;46.43;101087.63;6321976;28;20090;-70
2022/03/28 04:42:28;;;;;;;38.47;13.63;;;;;;;2.17;44.56;101077.38;6301270;28;20044;-70
2022/03/28 04:45:30;;;;;;;68.85;25.98;;;;;;;2.23;46.95;101081.63;6297442;28;20044;-71
2022/03/28 04:48:31;;;;;;;50.78;21.05;;;;;;;2.23;46.93;101086.78;6319787;28;20454;-71
2022/03/28 04:51:32;;;;;;;21.42;9.23;;;;;;;2.10;44.30;101088.63;6321287;28;20040;-71
2022/03/28 04:54:33;;;;;;;30.35;7.15;;;;;;;2.03;44.68;101081.81;6314870;28;20417;-70
2022/03/28 04:57:34;;;;;;;23.13;9.27;;;;;;;1.99;43.84;101087.88;6310549;28;20035;-71
2022/03/28 05:00:35;;;;;;;21.65;8.77;;;;;;;2.08;44.64;101086.91;6317485;28;20109;-70
2022/03/28 05:03:36;;;;;;;19.95;10.52;;;;;;;2.16;44.41;101093.72;6319451;28;20094;-70
2022/03/28 05:06:37;;;;;;;27.58;10.15;;;;;;;2.28;44.35;101097.88;6320042;28;20036;-70
2022/03/28 05:09:38;;;;;;;25.75;10.18;;;;;;;2.42;43.55;101095.16;6321241;28;20040;-71
2022/03/28 05:12:39;;;;;;;23.45;11.23;;;;;;;2.57;44.64;101092.44;6301824;28;20067;-71
2022/03/28 05:15:39;;;;;;;19.45;9.55;;;;;;;2.71;43.80;101091.41;6319533;28;20047;-71
2022/03/28 05:18:40;;;;;;;21.65;10.27;;;;;;;2.82;41.79;101103.31;6320529;28;20472;-71
2022/03/28 05:21:41;;;;;;;33.05;12.40;;;;;;;2.91;40.44;101104.91;6319598;28;20399;-70
2022/03/28 05:24:42;;;;;;;28.50;11.65;;;;;;;3.05;38.39;101102.16;6319206;28;20051;-71
2022/03/28 05:27:44;;;;;;;30.05;12.02;;;;;;;3.23;35.93;101094.19;6311596;28;20059;-70
2022/03/28 05:30:45;;;;;;;29.02;12.27;;;;;;;3.44;35.90;101094.75;6308860;28;20040;-70
2022/03/28 05:33:46;;;;;;;32.20;12.77;;;;;;;3.62;35.39;101103.91;6304614;28;20044;-70
2022/03/28 05:36:47;;;;;;;24.70;9.40;;;;;;;3.77;34.30;101106.25;6319127;28;20046;-70
2022/03/28 05:39:48;;;;;;;17.15;7.40;;;;;;;3.94;33.62;101105.13;6317965;28;20495;-70
2022/03/28 05:42:49;;;;;;;13.38;5.93;;;;;;;4.14;32.25;101100.47;6285718;28;20044;-70
2022/03/28 05:45:52;;;;;;;14.77;5.57;;;;;;;4.36;32.32;101094.91;6320116;28;20055;-70
2022/03/28 05:48:53;;;;;;;21.85;5.90;;;;;;;4.55;33.53;101095.41;6314545;28;20056;-70
2022/03/28 05:51:54;;;;;;;23.27;6.35;;;;;;;4.75;30.46;101090.69;6302497;28;20058;-70
2022/03/28 05:54:55;;;;;;;17.42;5.97;;;;;;;4.98;31.11;101095.41;6294543;28;20396;-70
2022/03/28 05:57:56;;;;;;;14.60;5.13;;;;;;;5.01;29.75;101091.91;6322377;28;20119;-71
2022/03/28 06:00:58;;;;;;;14.85;5.38;;;;;;;5.21;30.04;101087.16;6312511;28;20127;-70
2022/03/28 06:03:59;;;;;;;14.35;6.13;;;;;;;5.40;31.76;101097.09;6318113;28;20095;-70
2022/03/28 06:07:00;;;;;;;21.58;9.15;;;;;;;5.48;30.32;101083.94;6319563;28;20047;-70
2022/03/28 06:10:02;;;;;;;18.92;6.72;;;;;;;5.71;31.21;101088.59;6318433;28;20441;-70
2022/03/28 06:13:03;;;;;;;16.25;6.78;;;;;;;5.92;30.52;101085.44;6301106;28;20452;-70
2022/03/28 06:16:05;;;;;;;14.47;6.63;;;;;;;6.09;30.95;101077.28;6320240;28;20040;-71
2022/03/28 06:19:06;;;;;;;19.57;6.47;;;;;;;6.24;29.75;101079.47;6319351;28;20039;-71
2022/03/28 06:22:07;;;;;;;16.77;6.13;;;;;;;6.38;30.63;101079.13;6319434;28;20098;-71
2022/03/28 06:25:08;;;;;;;17.38;6.38;;;;;;;6.51;30.78;101078.78;6318190;28;20149;-70
2022/03/28 06:28:10;;;;;;;16.10;6.25;;;;;;;6.65;30.06;101077.50;6318219;28;20127;-72
2022/03/28 06:31:11;;;;;;;24.08;7.85;;;;;;;6.83;29.54;101076.09;6317915;28;20044;-72
2022/03/28 06:34:12;;;;;;;14.93;6.15;;;;;;;6.96;29.75;101076.59;6319387;28;20067;-72
2022/03/28 06:37:13;;;;;;;17.17;6.30;;;;;;;7.10;28.56;101070.97;6317957;28;20070;-71
2022/03/28 06:40:13;;;;;;;22.38;7.10;;;;;;;7.38;27.78;101072.75;6318066;28;20072;-71
2022/03/28 06:43:14;;;;;;;12.13;5.95;;;;;;;7.58;28.85;101067.75;6317851;28;20044;-71
2022/03/28 06:46:15;;;;;;;12.55;6.55;;;;;;;7.70;27.57;101070.84;6317969;28;20060;-71
2022/03/28 06:49:16;;;;;;;11.93;6.30;;;;;;;7.94;28.39;101064.81;6301277;28;20040;-71
2022/03/28 06:52:17;;;;;;;14.65;6.20;;;;;;;8.06;27.97;101068.78;6302516;28;20040;-71
2022/03/28 06:55:19;;;;;;;16.20;6.07;;;;;;;8.18;28.50;101057.94;6292910;28;20087;-71
2022/03/28 06:58:20;;;;;;;11.95;5.88;;;;;;;8.44;27.72;101049.25;6294013;28;20499;-71
2022/03/28 07:01:21;;;;;;;16.63;6.63;;;;;;;8.60;27.39;101051.28;6296845;28;20492;-71
2022/03/28 07:04:23;;;;;;;21.63;6.45;;;;;;;8.83;27.14;101053.03;6312009;28;20118;-71
2022/03/28 07:07:24;;;;;;;21.98;7.65;;;;;;;9.07;25.90;101049.47;6315842;28;20043;-71
2022/03/28 07:10:26;;;;;;;25.83;7.35;;;;;;;9.38;25.53;101052.63;6322254;28;20040;-71
2022/03/28 07:13:27;;;;;;;24.90;7.90;;;;;;;9.61;26.23;101049.09;6322264;28;20051;-72
2022/03/28 07:16:28;;;;;;;22.92;7.90;;;;;;;9.74;26.40;101037.28;6320907;28;20036;-71
2022/03/28 07:19:29;;;;;;;28.42;8.35;;;;;;;9.89;25.18;101046.19;6321445;28;20051;-75
2022/03/28 07:22:30;;;;;;;28.45;7.93;;;;;;;10.30;24.60;101040.16;6319888;28;20119;-75
2022/03/28 07:25:33;;;;;;;29.58;7.35;;;;;;;10.50;24.83;101042.72;6304703;28;20044;-76
2022/03/28 07:28:38;;;;;;;20.70;7.40;;;;;;;10.79;24.75;101044.00;6319718;28;20261;-76
2022/03/28 07:31:40;;;;;;;23.20;7.38;;;;;;;11.06;23.62;101043.63;6322434;28;20101;-76
2022/03/28 07:34:40;;;;;;;22.77;7.75;;;;;;;11.04;22.72;101045.47;6322440;28;20071;-71
2022/03/28 07:37:43;;;;;;;29.63;8.20;;;;;;;11.26;23.65;101053.97;6301416;28;20044;-71
2022/03/28 07:40:45;;;;;;;15.55;7.18;;;;;;;11.38;23.05;101047.28;6315503;28;20082;-71
2022/03/28 07:43:46;;;;;;;25.67;7.90;;;;;;;11.74;23.21;101041.19;6321836;28;20054;-71
2022/03/28 07:46:47;;;;;;;18.33;7.05;;;;;;;11.85;23.17;101045.88;6318458;28;20438;-71
2022/03/28 07:49:49;;;;;;;19.75;6.88;;;;;;;11.83;21.61;101047.72;6322918;28;20048;-71
2022/03/28 07:52:50;;;;;;;16.90;7.38;;;;;;;11.99;23.00;101035.59;6322429;28;20392;-71
2022/03/28 07:55:51;;;;;;;17.08;6.95;;;;;;;12.07;22.09;101043.88;6317589;28;20093;-70
2022/03/28 07:58:52;;;;;;;11.73;6.30;;;;;;;12.18;21.07;101042.47;6300040;28;20044;-71
2022/03/28 08:01:53;;;;;;;12.52;6.53;;;;;;;12.52;22.42;101031.09;6311725;28;20047;-75
2022/03/28 08:04:54;;;;;;;13.35;5.75;;;;;;;12.49;20.57;101024.22;6322563;28;20400;-75
2022/03/28 08:07:55;;;;;;;13.90;5.93;;;;;;;12.76;21.38;101028.06;6320328;28;20068;-76
2022/03/28 08:10:57;;;;;;;18.25;6.55;;;;;;;13.18;21.63;101035.31;6321497;28;20120;-76
2022/03/28 08:13:58;;;;;;;9.93;5.70;;;;;;;13.31;18.78;101019.78;6322555;28;20063;-76
2022/03/28 08:17:01;;;;;;;10.90;5.20;;;;;;;13.55;19.50;101016.66;6322731;28;20044;-73
2022/03/28 08:20:06;;;;;;;12.18;6.50;;;;;;;13.75;19.34;101015.50;6305267;28;20044;-73
2022/03/28 08:23:08;;;;;;;15.57;5.90;;;;;;;13.93;18.96;101016.19;6314545;28;20113;-73
2022/03/28 08:26:09;;;;;;;12.25;5.45;;;;;;;14.19;18.77;101014.63;6304586;28;20040;-76
2022/03/28 08:29:09;;;;;;;13.90;5.55;;;;;;;14.49;17.47;101019.75;6322261;28;20043;-76
2022/03/28 08:32:10;;;;;;;10.20;5.40;;;;;;;14.52;18.97;101012.53;6322096;28;20539;-75
2022/03/28 08:35:11;;;;;;;9.57;5.65;;;;;;;14.81;18.34;101009.06;6319442;28;20424;-74
2022/03/28 08:38:13;;;;;;;9.05;4.80;;;;;;;14.89;19.06;101006.78;6304885;28;20040;-70
2022/03/28 08:41:17;;;;;;;8.57;4.30;;;;;;;14.85;16.88;101013.19;6317425;28;20040;-70
2022/03/28 08:44:20;;;;;;;9.55;3.97;;;;;;;15.14;17.23;100995.53;6308685;28;20044;-70
2022/03/28 08:47:23;;;;;;;12.02;4.43;;;;;;;15.31;17.24;100997.88;6313948;28;20062;-71
2022/03/28 08:50:24;;;;;;;10.30;4.53;;;;;;;15.52;17.10;100997.41;6300539;28;20460;-70
2022/03/28 08:53:25;;;;;;;12.55;4.78;;;;;;;15.76;17.51;100999.38;6310670;28;20048;-70
2022/03/28 08:56:26;;;;;;;10.07;4.00;;;;;;;15.80;16.85;100988.53;6320513;28;20059;-71
2022/03/28 08:59:27;;;;;;;7.33;3.70;;;;;;;15.79;17.11;100991.25;6319691;28;20048;-75
2022/03/28 09:02:31;;;;;;;8.60;4.03;;;;;;;15.65;16.84;100993.03;6321497;28;20312;-74
2022/03/28 09:05:35;;;;;;;8.77;3.40;;;;;;;16.03;16.36;100981.69;6321363;28;20450;-75
2022/03/28 09:08:40;;;;;;;8.70;3.40;;;;;;;15.99;16.59;100984.63;6321318;28;20043;-74
2022/03/28 09:11:45;;;;;;;8.93;3.50;;;;;;;16.08;16.97;100966.44;6286246;28;20487;-74
2022/03/28 09:14:46;;;;;;;8.43;3.30;;;;;;;16.38;16.82;100982.81;6322803;28;20064;-75
2022/03/28 09:17:58;;;;;;;7.63;3.20;;;;;;;16.44;16.35;100975.31;6322821;28;20044;-74
2022/03/28 09:21:06;;;;;;;5.20;3.58;;;;;;;16.70;16.99;100968.19;6321043;28;20111;-74
2022/03/28 09:24:10;;;;;;;7.88;3.65;;;;;;;16.83;17.25;100968.16;6321962;28;20178;-76
2022/03/28 09:27:13;;;;;;;7.80;3.47;;;;;;;16.94;16.64;100962.09;6318065;28;20040;-75
2022/03/28 09:30:17;;;;;;;;;;;;;;;17.16;17.10;100964.00;6306376;28;20045;-76
2022/03/28 09:33:20;;;;;;;7.97;2.72;;;;;;;16.89;17.10;100956.34;6310254;28;19919;-71
2022/03/28 09:36:41;;;;;;;11.40;3.58;;;;;;;16.95;17.68;100961.16;6317977;28;20071;-71
2022/03/28 09:39:42;;;;;;;10.93;3.03;;;;;;;17.09;18.46;100955.72;6316405;28;20121;-71
2022/03/28 09:42:50;;;;;;;6.72;3.25;;;;;;;17.32;19.54;100950.50;6318062;28;20043;-70
2022/03/28 09:45:54;;;;;;;9.90;3.50;;;;;;;17.69;19.18;100948.56;6319011;28;20044;-71
2022/03/28 09:48:57;;;;;;;9.88;3.17;;;;;;;17.86;18.10;100941.16;6320508;28;20040;-71
2022/03/28 09:52:22;;;;;;;6.88;3.05;;;;;;;17.70;18.20;100939.66;6302520;28;20230;-71
2022/03/28 09:55:23;;;;;;;10.45;3.45;;;;;;;18.03;19.77;100934.56;6318697;28;20063;-71
2022/03/28 09:58:56;;;;;;;9.05;3.58;;;;;;;18.03;19.72;100934.56;6320363;28;20040;-71
2022/03/28 10:02:14;;;;;;;6.50;3.13;;;;;;;18.49;18.90;100926.47;6320623;28;20198;-71
2022/03/28 10:05:15;;;;;;;14.85;3.70;;;;;;;18.41;18.57;100920.09;6321086;28;20400;-71
2022/03/28 10:08:17;;;;;;;7.22;3.42;;;;;;;18.12;18.93;100928.56;6320009;28;20040;-71
2022/03/28 10:11:19;;;;;;;10.55;3.63;;;;;;;18.62;19.08;100928.97;6319986;28;20085;-70
2022/03/28 10:14:20;;;;;;;19.17;3.97;;;;;;;18.68;18.77;100919.69;6321103;28;20048;-71
2022/03/28 10:17:24;;;;;;;17.35;3.80;;;;;;;18.93;18.68;100907.97;6320981;28;20040;-72
2022/03/28 10:20:25;;;;;;;7.57;4.18;;;;;;;18.82;19.53;100900.94;6300559;28;20499;-71
2022/03/28 10:23:35;;;;;;;12.90;4.03;;;;;;;18.34;19.22;100898.63;6318584;28;20062;-71
2022/03/28 10:26:43;;;;;;;12.23;4.18;;;;;;;18.43;19.57;100884.69;6305306;28;20365;-72
2022/03/28 10:29:44;;;;;;;6.70;3.90;;;;;;;18.39;19.17;100885.91;6295549;28;20060;-74
2022/03/28 10:32:46;;;;;;;12.50;3.83;;;;;;;18.85;18.56;100876.03;6295277;28;20124;-72
2022/03/28 10:36:19;;;;;;;26.55;4.03;;;;;;;19.05;18.84;100869.94;6299635;28;20464;-75
2022/03/28 10:39:36;;;;;;;8.95;4.10;;;;;;;18.86;19.87;100864.47;6324968;28;20044;-74
2022/03/28 10:42:38;;;;;;;9.98;3.90;;;;;;;19.49;19.13;100860.00;6306399;28;20044;-75
2022/03/28 10:45:41;;;;;;;7.50;3.58;;;;;;;19.85;19.99;100852.53;6324325;28;20472;-74
2022/03/28 10:48:51;;;;;;;6.63;3.75;;;;;;;19.87;19.55;100845.31;6302099;28;20037;-75
2022/03/28 10:51:55;;;;;;;8.10;3.70;;;;;;;19.49;20.43;100851.25;6323475;28;20117;-75
2022/03/28 10:54:56;;;;;;;14.48;4.15;;;;;;;19.21;21.26;100834.22;6323181;28;20067;-75
2022/03/28 10:58:10;;;;;;;16.30;3.83;;;;;;;19.54;20.53;100841.13;6319416;28;20394;-74
2022/03/28 11:01:17;;;;;;;12.43;4.13;;;;;;;19.73;20.32;100817.38;6303878;28;20037;-74
2022/03/28 11:04:24;;;;;;;11.75;3.78;;;;;;;20.26;19.84;100808.31;6307518;28;20056;-74
2022/03/28 11:07:24;;;;;;;14.35;4.72;;;;;;;20.18;20.37;100809.94;6299257;28;20447;-74
2022/03/28 11:10:26;;;;;;;12.00;4.22;;;;;;;19.84;20.83;100808.47;6297677;28;20089;-74
2022/03/28 11:13:33;;;;;;;9.82;4.20;;;;;;;20.05;20.41;100794.31;6297729;28;20486;-75
2022/03/28 11:16:50;;;;;;;9.45;4.07;;;;;;;20.14;20.65;100788.22;6316740;28;20033;-75
2022/03/28 11:20:07;;;;;;;6.07;3.60;;;;;;;20.26;21.44;100787.09;6300121;28;20108;-75
2022/03/28 11:23:12;;;;;;;9.63;4.90;;;;;;;20.10;21.02;100773.56;6300121;28;20058;-76
2022/03/28 11:26:22;;;;;;;10.55;4.38;;;;;;;19.86;20.72;100758.03;6322107;28;20040;-76
2022/03/28 11:29:23;;;;;;;10.02;4.28;;;;;;;20.48;21.15;100751.50;6301482;28;20067;-76
2022/03/28 11:32:28;;;;;;;11.30;4.03;;;;;;;20.66;20.59;100745.53;6338789;28;20507;-76
2022/03/28 11:35:29;;;;;;;8.02;4.15;;;;;;;20.86;21.55;100730.44;6323329;28;20480;-75
2022/03/28 11:38:42;;;;;;;11.18;4.80;;;;;;;20.61;21.40;100723.91;6324131;28;20121;-75
2022/03/28 11:41:43;;;;;;;10.13;4.10;;;;;;;20.58;20.73;100721.50;6306667;28;20056;-76
2022/03/28 11:44:44;;;;;;;8.80;4.37;;;;;;;20.57;20.74;100720.69;6314574;28;20136;-77
2022/03/28 11:47:52;;;;;;;15.07;4.37;;;;;;;20.74;20.65;100697.94;6298476;28;20040;-76
2022/03/28 11:50:55;;;;;;;10.02;4.18;;;;;;;20.97;19.96;100695.75;6297532;28;20043;-77
2022/03/28 11:54:01;;;;;;;9.38;4.25;;;;;;;20.93;20.25;100689.06;6297321;28;20068;-78
2022/03/28 12:00:24;;;;;;;12.63;3.67;;;;;;;20.87;20.63;100671.09;6317977;28;20098;-77
2022/03/28 12:03:25;;;;;;;13.52;3.85;;;;;;;21.01;21.29;100660.00;6321621;28;20141;-77
2022/03/28 12:06:31;;;;;;;15.93;4.40;;;;;;;20.95;20.75;100657.09;6322367;28;20036;-78
2022/03/28 12:09:32;;;;;;;10.23;4.03;;;;;;;21.50;20.87;100644.66;6323363;28;20367;-77
2022/03/28 12:12:41;;;;;;;11.57;4.57;;;;;;;21.18;20.47;100639.78;6322019;28;20040;-77
2022/03/28 12:15:45;;;;;;;12.82;4.20;;;;;;;21.10;20.79;100631.75;6321894;28;20066;-78
2022/03/28 12:18:48;;;;;;;11.40;4.43;;;;;;;20.85;20.54;100634.09;6322325;28;20148;-78
2022/03/28 12:21:50;;;;;;;11.55;4.18;;;;;;;20.97;21.23;100626.78;6305262;28;20044;-78
2022/03/28 12:24:52;;;;;;;17.08;4.43;;;;;;;20.98;20.90;100620.50;6322187;28;20134;-77
2022/03/28 12:27:56;;;;;;;11.57;4.57;;;;;;;21.36;20.55;100617.78;6322928;28;20496;-78
2022/03/28 12:30:59;;;;;;;17.02;4.40;;;;;;;21.63;20.11;100601.81;6322742;28;20092;-77
2022/03/28 12:34:00;;;;;;;15.48;4.40;;;;;;;21.26;20.22;100599.25;6323053;28;20048;-79
2022/03/28 12:37:01;;;;;;;13.57;4.20;;;;;;;21.50;20.85;100594.22;6322277;28;20086;-78
2022/03/28 12:40:03;;;;;;;10.88;4.10;;;;;;;21.56;20.59;100584.81;6320617;28;20048;-80
2022/03/28 12:43:04;;;;;;;8.57;4.07;;;;;;;21.43;20.45;100579.88;6303739;28;20488;-79
2022/03/28 12:46:08;;;;;;;20.27;5.10;;;;;;;21.06;20.72;100580.78;6317809;28;20126;-78
2022/03/28 12:49:16;;;;;;;9.52;4.13;;;;;;;21.26;20.00;100570.88;6321875;28;20058;-78
2022/03/28 12:52:22;;;;;;;13.18;3.80;;;;;;;21.44;20.79;100567.47;6321722;28;20040;-78
2022/03/28 12:55:26;;;;;;;7.72;3.95;;;;;;;21.50;20.75;100565.03;6320762;28;20247;-78
2022/03/28 12:58:36;;;;;;;9.63;4.22;;;;;;;21.28;21.14;100550.34;6308739;28;20557;-77
2022/03/28 13:01:37;;;;;;;13.25;4.45;;;;;;;21.68;20.98;100546.44;6312231;28;20067;-77
2022/03/28 13:04:49;;;;;;;;;;;;;;;21.29;20.49;100546.72;6320235;28;20607;-78
2022/03/28 13:07:51;;;;;;;13.57;4.60;;;;;;;21.01;20.83;100539.78;6320709;28;19973;-78
2022/03/28 13:10:57;;;;;;;9.73;4.20;;;;;;;20.99;21.34;100536.47;6304609;28;20040;-78
2022/03/28 13:14:00;;;;;;;11.57;4.60;;;;;;;20.98;21.11;100525.03;6305672;28;20040;-78
2022/03/28 13:17:08;;;;;;;11.43;4.55;;;;;;;21.10;21.27;100517.66;6295973;28;20044;-77
2022/03/28 13:20:16;;;;;;;7.78;4.40;;;;;;;21.29;21.07;100514.88;6304042;28;20032;-77
2022/03/28 13:23:21;;;;;;;10.88;5.32;;;;;;;20.92;20.76;100510.53;6320649;28;20445;-77
2022/03/28 13:26:22;;;;;;;11.50;4.22;;;;;;;20.92;20.66;100491.97;6295380;28;20067;-76
2022/03/28 13:29:27;;;;;;;14.95;4.78;;;;;;;21.07;20.49;100502.06;6294912;28;20249;-78
2022/03/28 13:32:28;;;;;;;9.73;4.35;;;;;;;21.13;20.61;100483.72;6294000;28;20059;-77
2022/03/28 13:35:29;;;;;;;7.97;4.68;;;;;;;21.09;20.73;100484.16;6297080;28;20116;-78
2022/03/28 13:38:37;;;;;;;13.63;4.53;;;;;;;20.91;21.17;100481.50;6319514;28;20102;-78
2022/03/28 13:41:38;;;;;;;9.55;4.43;;;;;;;21.10;21.13;100475.22;6319055;28;20047;-78
2022/03/28 13:44:39;;;;;;;10.00;4.60;;;;;;;21.11;21.09;100460.97;6320605;28;20051;-77
2022/03/28 13:47:40;;;;;;;7.53;4.27;;;;;;;20.93;20.48;100460.97;6319488;28;20087;-73
2022/03/28 13:50:43;;;;;;;8.60;4.23;;;;;;;21.19;20.68;100449.56;6285349;28;20295;-72
2022/03/28 13:53:44;;;;;;;10.00;4.78;;;;;;;20.82;21.08;100439.97;6320753;28;20066;-72
2022/03/28 13:56:46;;;;;;;8.88;4.38;;;;;;;21.06;21.48;100437.53;6320924;28;20407;-73
2022/03/28 13:59:47;;;;;;;11.25;4.40;;;;;;;21.23;21.35;100432.38;6319241;28;20063;-73
2022/03/28 14:02:48;;;;;;;12.95;3.88;;;;;;;21.11;20.97;100423.84;6302364;28;20084;-73
2022/03/28 14:05:51;;;;;;;16.27;4.47;;;;;;;21.30;21.10;100418.34;6319161;28;20477;-73
2022/03/28 14:08:53;;;;;;;9.68;4.47;;;;;;;21.09;21.97;100421.31;6319771;28;20044;-73
2022/03/28 14:11:54;;;;;;;8.85;4.07;;;;;;;20.78;21.45;100407.63;6325369;28;20064;-72